createdAt,value
2022-12-12T00:00:14.233Z,7.15
2022-12-12T00:02:21.751Z,6.32
2022-12-12T00:04:26.379Z,5.70
2022-12-12T00:06:30.811Z,5.85
2022-12-12T00:08:33.172Z,6.10
2022-12-12T00:10:37.376Z,6.78
2022-12-12T00:12:39.088Z,5.95
2022-12-12T00:14:40.753Z,5.47
2022-12-12T00:16:48.071Z,6.15
2022-12-12T00:18:49.774Z,4.60
2022-12-12T00:20:52.638Z,5.25
2022-12-12T00:22:59.972Z,5.35
2022-12-12T00:25:01.796Z,7.40
2022-12-12T00:27:09.416Z,8.98
2022-12-12T00:29:10.989Z,11.55
2022-12-12T00:31:18.447Z,10.68
2022-12-12T00:33:20.161Z,9.70
2022-12-12T00:35:27.440Z,8.88
2022-12-12T00:37:31.908Z,7.53
2022-12-12T00:39:39.190Z,9.80
2022-12-12T00:41:44.020Z,8.57
2022-12-12T00:43:48.449Z,7.10
2022-12-12T00:45:58.387Z,8.10
2022-12-12T00:48:00.160Z,9.45
2022-12-12T00:50:04.913Z,11.23
2022-12-12T00:52:06.497Z,9.93
2022-12-12T00:56:18.739Z,9.18
2022-12-12T00:58:20.500Z,6.25
2022-12-12T01:00:28.252Z,7.10
2022-12-12T01:02:33.017Z,5.47
2022-12-12T01:04:37.489Z,7.07
2022-12-12T01:06:39.523Z,7.65
2022-12-12T01:08:46.974Z,7.95
2022-12-12T01:10:54.406Z,7.85
2022-12-12T01:12:56.018Z,8.07
2022-12-12T01:15:04.663Z,8.43
2022-12-12T01:17:06.409Z,8.27
2022-12-12T01:19:11.021Z,6.72
2022-12-12T01:21:13.730Z,8.88
2022-12-12T01:23:20.989Z,7.90
2022-12-12T01:25:22.562Z,6.38
2022-12-12T01:27:24.106Z,7.88
2022-12-12T01:29:33.473Z,7.72
2022-12-12T01:31:35.037Z,6.75
2022-12-12T01:33:40.226Z,6.57
2022-12-12T01:35:41.848Z,4.70
2022-12-12T01:37:49.789Z,5.72
2022-12-12T01:39:51.953Z,4.45
2022-12-12T01:41:56.358Z,5.13
2022-12-12T01:44:01.127Z,5.28
2022-12-12T01:46:19.117Z,6.55
2022-12-12T01:48:42.702Z,5.63
2022-12-12T01:50:53.932Z,4.75
2022-12-12T01:53:10.329Z,8.57
2022-12-12T01:55:31.925Z,7.13
2022-12-12T01:57:46.872Z,7.43
2022-12-12T02:00:06.034Z,7.75
2022-12-12T02:02:17.208Z,6.65
2022-12-12T02:04:32.055Z,9.10
2022-12-12T02:06:41.484Z,7.70
2022-12-12T02:08:45.747Z,9.13
2022-12-12T02:10:55.950Z,7.38
2022-12-12T02:13:08.265Z,7.65
2022-12-12T02:15:13.037Z,8.18
2022-12-12T02:17:41.561Z,7.55
2022-12-12T02:20:07.269Z,6.65
2022-12-12T02:22:11.166Z,6.95
2022-12-12T02:24:27.144Z,5.65
2022-12-12T02:26:33.976Z,5.25
2022-12-12T02:28:44.310Z,4.28
2022-12-12T02:31:06.796Z,4.88
2022-12-12T02:33:29.153Z,4.75
2022-12-12T02:35:36.485Z,3.70
2022-12-12T02:37:49.385Z,4.60
2022-12-12T02:39:58.411Z,4.13
2022-12-12T02:42:03.016Z,4.65
2022-12-12T02:44:29.310Z,3.50
2022-12-12T02:46:53.916Z,3.63
2022-12-12T02:49:06.382Z,3.80
2022-12-12T02:51:11.721Z,4.53
2022-12-12T02:53:17.171Z,3.78
2022-12-12T02:55:24.755Z,4.93
2022-12-12T02:57:26.916Z,6.32
2022-12-12T02:59:37.166Z,5.10
2022-12-12T03:02:03.177Z,5.90
2022-12-12T03:04:33.374Z,4.90
2022-12-12T03:07:17.778Z,4.45
2022-12-12T03:09:19.309Z,4.28
2022-12-12T03:11:38.172Z,3.70
2022-12-12T03:13:50.125Z,4.95
2022-12-12T03:16:09.680Z,4.90
2022-12-12T03:18:29.689Z,6.43
2022-12-12T03:20:38.572Z,5.50
2022-12-12T03:22:51.449Z,5.45
2022-12-12T03:25:03.999Z,5.47
2022-12-12T03:27:17.837Z,5.20
2022-12-12T03:29:48.388Z,4.80
2022-12-12T03:31:54.331Z,6.43
2022-12-12T03:34:03.198Z,5.85
2022-12-12T03:36:14.645Z,5.53
2022-12-12T03:38:28.441Z,5.65
2022-12-12T03:40:33.493Z,7.43
2022-12-12T03:42:38.261Z,7.05
2022-12-12T03:44:43.953Z,7.53
2022-12-12T03:47:01.653Z,6.45
2022-12-12T03:49:13.632Z,5.78
2022-12-12T03:51:17.073Z,6.45
2022-12-12T03:53:28.574Z,5.00
2022-12-12T03:55:38.516Z,6.15
2022-12-12T03:57:47.226Z,4.82
2022-12-12T03:59:54.775Z,5.65
2022-12-12T04:02:22.510Z,4.18
2022-12-12T04:04:50.551Z,5.85
2022-12-12T04:06:59.863Z,5.32
2022-12-12T04:09:29.724Z,7.85
2022-12-12T04:11:59.362Z,6.53
2022-12-12T04:14:26.364Z,7.65
2022-12-12T04:16:30.805Z,6.47
2022-12-12T04:18:38.457Z,5.65
2022-12-12T04:21:14.032Z,6.80
2022-12-12T04:25:34.687Z,6.45
2022-12-12T04:27:40.968Z,7.25
2022-12-12T04:29:52.806Z,5.75
2022-12-12T04:32:04.959Z,6.90
2022-12-12T04:34:10.537Z,5.95
2022-12-12T04:36:18.049Z,6.05
2022-12-12T04:38:25.618Z,7.78
2022-12-12T04:40:38.871Z,6.00
2022-12-12T04:42:45.377Z,6.18
2022-12-12T04:44:47.357Z,5.40
2022-12-12T04:46:50.760Z,5.97
2022-12-12T04:48:58.269Z,5.85
2022-12-12T04:51:13.291Z,5.40
2022-12-12T04:53:27.226Z,6.32
2022-12-12T04:55:46.798Z,5.70
2022-12-12T04:58:03.427Z,6.15
2022-12-12T05:00:17.817Z,5.97
2022-12-12T05:02:44.557Z,7.13
2022-12-12T05:05:00.215Z,5.72
2022-12-12T05:07:21.730Z,6.38
2022-12-12T05:09:42.724Z,5.72
2022-12-12T05:11:59.645Z,6.03
2022-12-12T05:14:14.954Z,6.82
2022-12-12T05:16:27.107Z,6.20
2022-12-12T05:18:39.545Z,4.50
2022-12-12T05:20:56.959Z,4.50
2022-12-12T05:23:07.915Z,4.00
2022-12-12T05:25:22.358Z,4.70
2022-12-12T05:27:27.599Z,6.10
2022-12-12T05:29:29.301Z,5.40
2022-12-12T05:31:30.827Z,5.22
2022-12-12T05:33:32.430Z,4.78
2022-12-12T05:35:34.204Z,4.32
2022-12-12T05:37:36.182Z,6.40
2022-12-12T05:39:37.951Z,5.53
2022-12-12T05:41:45.358Z,5.65
2022-12-12T05:45:56.952Z,6.22
2022-12-12T05:47:58.668Z,4.93
2022-12-12T05:50:00.251Z,4.40
2022-12-12T05:52:04.836Z,4.43
2022-12-12T05:54:12.161Z,5.72
2022-12-12T05:56:13.747Z,7.93
2022-12-12T05:58:15.437Z,6.53
2022-12-12T06:00:17.000Z,6.32
2022-12-12T06:04:29.053Z,5.93
2022-12-12T06:06:33.483Z,6.82
2022-12-12T06:08:35.077Z,6.60
2022-12-12T06:10:36.644Z,6.88
2022-12-12T06:12:41.210Z,6.32
2022-12-12T06:16:47.026Z,5.68
2022-12-12T06:18:52.218Z,3.80
2022-12-12T06:21:01.541Z,6.03
2022-12-12T06:23:06.077Z,5.57
2022-12-12T06:25:11.038Z,4.75
2022-12-12T06:27:12.780Z,6.43
2022-12-12T06:29:17.505Z,4.82
2022-12-12T06:31:22.058Z,4.63
2022-12-12T06:33:23.665Z,4.35
2022-12-12T06:35:25.164Z,5.38
2022-12-12T06:39:30.860Z,3.78
2022-12-12T06:41:39.821Z,6.93
2022-12-12T06:43:44.466Z,5.28
2022-12-12T06:45:46.112Z,5.82
2022-12-12T06:47:47.657Z,4.65
2022-12-12T06:49:52.004Z,4.70
2022-12-12T06:51:53.484Z,3.83
2022-12-12T06:53:57.975Z,3.95
2022-12-12T06:55:59.607Z,4.45
2022-12-12T06:58:01.271Z,4.28
2022-12-12T07:00:04.107Z,4.53
2022-12-12T07:02:09.640Z,4.30
2022-12-12T07:04:14.362Z,3.95
2022-12-12T07:06:23.489Z,4.25
2022-12-12T07:08:30.771Z,3.30
2022-12-12T07:10:38.159Z,5.40
2022-12-12T07:12:39.658Z,3.50
2022-12-12T07:14:43.846Z,2.85
2022-12-12T07:17:35.578Z,4.35
2022-12-12T07:19:42.858Z,4.25
2022-12-12T07:21:44.352Z,4.00
2022-12-12T07:23:51.689Z,4.72
2022-12-12T07:25:53.600Z,4.38
2022-12-12T07:27:55.166Z,4.10
2022-12-12T07:29:56.672Z,4.32
2022-12-12T07:32:01.175Z,4.45
2022-12-12T07:36:07.080Z,4.20
2022-12-12T07:38:08.826Z,4.78
2022-12-12T07:40:10.642Z,4.45
2022-12-12T07:42:12.224Z,4.43
2022-12-12T07:44:16.856Z,5.00
2022-12-12T07:46:25.305Z,4.45
2022-12-12T07:48:27.605Z,4.13
2022-12-12T07:50:32.269Z,4.05
2022-12-12T07:52:36.696Z,4.63
2022-12-12T07:54:40.816Z,6.30
2022-12-12T07:56:50.582Z,5.13
2022-12-12T07:58:55.823Z,6.63
2022-12-12T08:01:28.951Z,6.75
2022-12-12T08:03:57.844Z,4.63
2022-12-12T08:06:20.626Z,5.03
2022-12-12T08:08:47.092Z,7.43
2022-12-12T08:11:11.505Z,5.60
2022-12-12T08:13:35.005Z,4.30
2022-12-12T08:15:53.104Z,3.33
2022-12-12T08:18:16.209Z,4.20
2022-12-12T08:20:37.900Z,4.97
2022-12-12T08:23:01.239Z,4.28
2022-12-12T08:25:25.015Z,3.20
2022-12-12T08:27:31.673Z,3.83
2022-12-12T08:29:49.055Z,3.20
2022-12-12T08:31:57.379Z,4.32
2022-12-12T08:34:07.869Z,3.88
2022-12-12T08:36:32.292Z,3.42
2022-12-12T08:38:33.874Z,3.72
2022-12-12T08:40:35.818Z,4.40
2022-12-12T08:42:40.295Z,4.38
2022-12-12T08:44:42.017Z,3.35
2022-12-12T08:46:46.956Z,4.45
2022-12-12T08:48:48.792Z,2.83
2022-12-12T08:50:53.638Z,3.10
2022-12-12T08:52:55.600Z,3.05
2022-12-12T08:54:57.216Z,5.15
2022-12-12T08:57:05.168Z,4.78
2022-12-12T08:59:09.872Z,4.40
2022-12-12T09:01:19.666Z,3.80
2022-12-12T09:03:26.173Z,3.95
2022-12-12T09:05:33.975Z,4.40
2022-12-12T09:07:38.445Z,5.30
2022-12-12T09:09:39.957Z,5.38
2022-12-12T09:11:41.478Z,4.85
2022-12-12T09:13:43.969Z,4.32
2022-12-12T09:15:51.786Z,4.20
2022-12-12T09:17:53.535Z,5.57
2022-12-12T09:19:55.355Z,5.82
2022-12-12T09:21:57.097Z,5.25
2022-12-12T09:23:59.692Z,3.95
2022-12-12T09:26:07.877Z,5.32
2022-12-12T09:28:10.669Z,3.50
2022-12-12T09:30:13.955Z,3.70
2022-12-12T09:32:25.059Z,3.83
2022-12-12T09:34:33.257Z,4.13
2022-12-12T09:36:41.115Z,3.58
2022-12-12T09:38:42.889Z,3.40
2022-12-12T09:40:50.844Z,2.92
2022-12-12T09:42:52.805Z,3.63
2022-12-12T09:44:56.621Z,3.17
2022-12-12T09:47:01.411Z,3.85
2022-12-12T09:49:14.185Z,9.00
2022-12-12T09:51:15.994Z,5.95
2022-12-12T09:53:19.846Z,4.72
2022-12-12T09:55:30.516Z,4.53
2022-12-12T09:57:40.745Z,4.43
2022-12-12T09:59:56.188Z,3.45
2022-12-12T10:02:10.169Z,4.13
2022-12-12T10:04:20.881Z,3.28
2022-12-12T10:06:42.689Z,3.13
2022-12-12T10:09:02.852Z,3.33
2022-12-12T10:11:07.607Z,2.60
2022-12-12T10:13:32.699Z,3.58
2022-12-12T10:15:44.926Z,3.65
2022-12-12T10:17:47.491Z,2.92
2022-12-12T10:19:53.906Z,3.67
2022-12-12T10:22:02.446Z,3.58
2022-12-12T10:24:07.212Z,3.97
2022-12-12T10:26:13.403Z,3.65
2022-12-12T10:28:20.128Z,3.97
2022-12-12T10:30:30.773Z,4.05
2022-12-12T10:32:41.408Z,4.28
2022-12-12T10:35:04.432Z,3.15
2022-12-12T10:37:08.962Z,2.83
2022-12-12T10:39:16.360Z,3.45
2022-12-12T10:41:36.794Z,3.38
2022-12-12T10:43:46.279Z,4.90
2022-12-12T10:45:53.339Z,4.43
2022-12-12T10:47:55.235Z,5.18
2022-12-12T10:50:13.609Z,9.65
2022-12-12T10:52:20.116Z,6.28
2022-12-12T10:54:23.271Z,5.30
2022-12-12T10:56:26.970Z,5.00
2022-12-12T10:58:38.881Z,3.83
2022-12-12T11:00:44.295Z,4.85
2022-12-12T11:02:56.764Z,5.82
2022-12-12T11:05:11.269Z,4.70
2022-12-12T11:07:22.880Z,5.20
2022-12-12T11:12:05.172Z,4.72
2022-12-12T11:14:36.053Z,5.38
2022-12-12T11:16:44.776Z,5.03
2022-12-12T11:19:01.842Z,5.00
2022-12-12T11:21:16.999Z,3.92
2022-12-12T11:23:31.905Z,5.05
2022-12-12T11:25:35.965Z,4.05
2022-12-12T11:27:48.041Z,4.35
2022-12-12T11:30:08.851Z,3.60
2022-12-12T11:32:19.007Z,4.72
2022-12-12T11:34:34.057Z,4.68
2022-12-12T11:36:45.868Z,4.47
2022-12-12T11:39:01.160Z,5.38
2022-12-12T11:41:17.244Z,4.50
2022-12-12T11:43:30.494Z,5.07
2022-12-12T11:45:39.446Z,4.07
2022-12-12T11:47:49.076Z,4.90
2022-12-12T11:49:55.042Z,5.45
2022-12-12T11:52:17.685Z,7.03
2022-12-12T11:54:31.785Z,6.18
2022-12-12T11:56:43.212Z,6.05
2022-12-12T11:58:54.162Z,5.28
2022-12-12T12:00:59.182Z,7.85
2022-12-12T12:03:25.480Z,6.32
2022-12-12T12:05:46.148Z,7.82
2022-12-12T12:07:50.879Z,5.63
2022-12-12T12:10:01.750Z,6.78
2022-12-12T12:12:15.641Z,6.15
2022-12-12T12:14:19.817Z,6.97
2022-12-12T12:16:31.810Z,7.00
2022-12-12T12:18:52.546Z,7.22
2022-12-12T12:21:00.551Z,5.75
2022-12-12T12:23:04.870Z,5.07
2022-12-12T12:25:25.396Z,7.15
2022-12-12T12:27:44.747Z,5.30
2022-12-12T12:29:58.311Z,6.13
2022-12-12T12:32:03.096Z,6.53
2022-12-12T12:34:30.452Z,6.50
2022-12-12T12:36:52.060Z,5.45
2022-12-12T12:39:16.964Z,6.30
2022-12-12T12:41:28.592Z,5.47
2022-12-12T12:43:36.044Z,5.95
2022-12-12T12:45:46.651Z,5.43
2022-12-12T12:48:02.487Z,5.03
2022-12-12T12:50:15.766Z,6.38
2022-12-12T12:52:31.953Z,7.90
2022-12-12T12:54:39.276Z,8.48
2022-12-12T12:56:54.502Z,7.63
2022-12-12T12:59:03.222Z,7.60
2022-12-12T13:01:34.158Z,7.70
2022-12-12T13:03:51.397Z,6.90
2022-12-12T13:06:01.649Z,7.97
2022-12-12T13:08:19.312Z,9.18
2022-12-12T13:10:22.718Z,9.57
2022-12-12T13:12:41.946Z,10.20
2022-12-12T13:14:46.037Z,11.15
2022-12-12T13:16:51.761Z,8.68
2022-12-12T13:19:19.633Z,8.32
2022-12-12T13:21:33.058Z,8.70
2022-12-12T13:23:53.247Z,9.50
2022-12-12T13:26:08.512Z,9.77
2022-12-12T13:28:15.725Z,9.82
2022-12-12T13:30:20.664Z,9.80
2022-12-12T13:32:38.374Z,9.68
2022-12-12T13:34:48.236Z,9.68
2022-12-12T13:36:53.918Z,9.63
2022-12-12T13:38:56.795Z,8.13
2022-12-12T13:41:02.613Z,7.28
2022-12-12T13:43:09.905Z,9.40
2022-12-12T13:45:30.475Z,9.95
2022-12-12T13:47:36.138Z,11.98
2022-12-12T13:49:49.701Z,10.57
2022-12-12T13:52:14.011Z,10.43
2022-12-12T13:54:18.213Z,10.60
2022-12-12T13:58:34.363Z,12.07
2022-12-12T14:00:43.372Z,11.13
2022-12-12T14:03:01.063Z,9.73
2022-12-12T14:05:21.441Z,8.25
2022-12-12T14:07:23.448Z,7.50
2022-12-12T14:09:47.176Z,7.40
2022-12-12T14:12:02.781Z,7.78
2022-12-12T14:14:20.470Z,9.25
2022-12-12T14:16:27.476Z,9.90
2022-12-12T14:18:37.668Z,7.63
2022-12-12T14:20:56.388Z,6.30
2022-12-12T14:23:25.190Z,5.35
2022-12-12T14:25:36.352Z,5.47
2022-12-12T14:27:52.373Z,5.35
2022-12-12T14:29:56.082Z,3.75
2022-12-12T14:32:15.002Z,4.78
2022-12-12T14:34:43.810Z,4.07
2022-12-12T14:36:47.512Z,4.25
2022-12-12T14:39:16.276Z,3.90
2022-12-12T14:41:23.923Z,3.28
2022-12-12T14:43:31.587Z,3.95
2022-12-12T14:45:54.402Z,3.58
2022-12-12T14:48:18.613Z,5.30
2022-12-12T14:50:29.461Z,2.75
2022-12-12T14:52:32.297Z,3.50
2022-12-12T14:54:37.002Z,4.75
2022-12-12T14:56:46.356Z,3.63
2022-12-12T14:58:53.968Z,3.67
2022-12-12T15:03:26.794Z,4.47
2022-12-12T15:05:56.482Z,3.83
2022-12-12T15:08:00.976Z,3.03
2022-12-12T15:10:27.637Z,4.20
2022-12-12T15:12:33.394Z,4.05
2022-12-12T15:14:38.875Z,3.42
2022-12-12T15:16:48.580Z,4.57
2022-12-12T15:18:50.880Z,3.10
2022-12-12T15:20:56.776Z,4.50
2022-12-12T15:23:00.576Z,6.37
2022-12-12T15:25:15.852Z,3.83
2022-12-12T15:27:22.787Z,3.97
2022-12-12T15:29:26.239Z,3.85
2022-12-12T15:31:27.890Z,4.68
2022-12-12T15:33:38.711Z,4.57
2022-12-12T15:36:05.263Z,5.00
2022-12-12T15:38:13.214Z,4.38
2022-12-12T15:40:17.719Z,8.07
2022-12-12T15:42:22.466Z,6.78
2022-12-12T15:44:27.265Z,6.07
2022-12-12T15:46:31.875Z,6.95
2022-12-12T15:48:36.613Z,5.97
2022-12-12T15:50:43.502Z,6.88
2022-12-12T15:52:57.779Z,8.25
2022-12-12T15:55:00.706Z,7.45
2022-12-12T15:57:02.655Z,7.15
2022-12-12T15:59:04.212Z,9.55
2022-12-12T16:01:20.052Z,8.27
2022-12-12T16:05:37.700Z,8.40
2022-12-12T16:07:42.316Z,7.78
2022-12-12T16:09:57.040Z,6.25
2022-12-12T16:14:03.094Z,8.30
2022-12-12T16:16:26.608Z,6.50
2022-12-12T16:18:28.907Z,6.15
2022-12-12T16:20:30.967Z,6.10
2022-12-12T16:22:42.780Z,8.32
2022-12-12T16:24:45.439Z,6.25
2022-12-12T16:26:50.368Z,8.57
2022-12-12T16:28:52.020Z,8.60
2022-12-12T16:30:57.664Z,7.72
2022-12-12T16:33:23.069Z,8.25
2022-12-12T16:35:30.288Z,7.63
2022-12-12T16:37:32.720Z,11.90
2022-12-12T16:39:34.239Z,10.85
2022-12-12T16:41:35.742Z,10.32
2022-12-12T16:43:38.294Z,9.98
2022-12-12T16:45:40.565Z,8.35
2022-12-12T16:47:42.195Z,10.60
2022-12-12T16:49:43.806Z,9.60
2022-12-12T16:51:45.262Z,11.38
2022-12-12T16:53:52.584Z,8.88
2022-12-12T16:55:54.799Z,11.00
2022-12-12T16:57:59.262Z,8.93
2022-12-12T17:00:01.157Z,7.93
2022-12-12T17:02:16.963Z,9.05
2022-12-12T17:04:27.636Z,9.30
2022-12-12T17:06:31.841Z,9.68
2022-12-12T17:10:40.327Z,10.65
2022-12-12T17:12:42.066Z,8.23
2022-12-12T17:14:44.020Z,8.30
2022-12-12T17:16:48.981Z,8.57
2022-12-12T17:18:57.021Z,9.15
2022-12-12T17:21:01.779Z,8.98
2022-12-12T17:25:29.319Z,11.43
2022-12-12T17:27:31.146Z,8.77
2022-12-12T17:29:35.831Z,9.02
2022-12-12T17:31:40.839Z,7.60
2022-12-12T17:33:50.712Z,8.77
2022-12-12T17:36:04.478Z,8.02
2022-12-12T17:38:11.391Z,7.22
2022-12-12T17:40:21.953Z,8.93
2022-12-12T17:42:23.649Z,8.68
2022-12-12T17:44:30.958Z,8.05
2022-12-12T17:46:32.604Z,7.38
2022-12-12T17:48:41.177Z,7.88
2022-12-12T17:50:45.563Z,8.30
2022-12-12T17:52:47.412Z,7.63
2022-12-12T17:55:53.745Z,7.07
2022-12-12T17:57:13.313Z,6.00
2022-12-12T17:59:14.926Z,7.00
2022-12-12T18:01:23.392Z,6.60
2022-12-12T18:03:25.202Z,5.63
2022-12-12T18:05:27.493Z,8.68
2022-12-12T18:07:29.151Z,6.25
2022-12-12T18:09:30.924Z,5.60
2022-12-12T18:11:33.349Z,6.00
2022-12-12T18:13:38.939Z,5.22
2022-12-12T18:15:42.452Z,5.55
2022-12-12T18:17:44.154Z,5.32
2022-12-12T18:19:48.728Z,7.03
2022-12-12T18:22:00.971Z,5.72
2022-12-12T18:24:09.794Z,6.00
2022-12-12T18:26:22.068Z,4.90
2022-12-12T18:28:23.840Z,6.50
2022-12-12T18:30:25.556Z,6.50
2022-12-12T18:32:27.082Z,7.47
2022-12-12T18:34:32.275Z,6.15
2022-12-12T18:36:39.939Z,6.95
2022-12-12T18:38:48.144Z,6.70
2022-12-12T18:40:52.721Z,5.82
2022-12-12T18:42:54.590Z,7.22
2022-12-12T18:44:57.042Z,7.50
2022-12-12T18:46:58.551Z,7.72
2022-12-12T18:49:02.779Z,5.82
2022-12-12T18:51:08.124Z,7.00
2022-12-12T18:53:12.385Z,4.65
2022-12-12T18:55:26.046Z,4.85
2022-12-12T18:57:30.635Z,5.78
2022-12-12T18:59:35.409Z,5.15
2022-12-12T19:01:40.128Z,6.72
2022-12-12T19:03:45.137Z,6.18
2022-12-12T19:05:46.753Z,6.68
2022-12-12T19:07:48.772Z,7.32
2022-12-12T19:09:50.397Z,5.85
2022-12-12T19:12:01.880Z,4.85
2022-12-12T19:14:04.965Z,6.35
2022-12-12T19:16:11.753Z,5.70
2022-12-12T19:18:15.977Z,6.50
2022-12-12T19:20:17.763Z,5.95
2022-12-12T19:22:43.686Z,5.35
2022-12-12T19:24:41.260Z,5.35
2022-12-12T19:26:43.961Z,5.03
2022-12-12T19:28:48.539Z,5.22
2022-12-12T19:30:53.018Z,4.65
2022-12-12T19:32:55.669Z,5.50
2022-12-12T19:34:57.366Z,6.88
2022-12-12T19:36:59.301Z,5.20
2022-12-12T19:39:01.159Z,4.28
2022-12-12T19:41:06.784Z,5.78
2022-12-12T19:43:08.320Z,4.72
2022-12-12T19:45:10.418Z,4.72
2022-12-12T19:47:13.326Z,4.93
2022-12-12T19:49:17.939Z,4.70
2022-12-12T19:51:20.277Z,6.47
2022-12-12T19:53:22.098Z,4.70
2022-12-12T19:55:29.450Z,4.97
2022-12-12T19:57:34.091Z,4.75
2022-12-12T19:59:35.772Z,4.60
2022-12-12T20:01:43.214Z,3.85
2022-12-12T20:03:49.042Z,6.00
2022-12-12T20:05:58.483Z,4.85
2022-12-12T20:08:03.269Z,4.75
2022-12-12T20:10:05.561Z,5.22
2022-12-12T20:12:07.128Z,4.60
2022-12-12T20:16:19.945Z,4.75
2022-12-12T20:18:24.268Z,5.28
2022-12-12T20:20:37.080Z,4.82
2022-12-12T20:22:39.026Z,4.57
2022-12-12T20:24:54.198Z,4.57
2022-12-12T20:27:08.469Z,4.13
2022-12-12T20:29:21.156Z,3.97
2022-12-12T20:31:33.071Z,3.65
2022-12-12T20:33:43.023Z,5.05
2022-12-12T20:35:58.273Z,3.65
2022-12-12T20:38:06.872Z,5.30
2022-12-12T20:40:20.561Z,3.80
2022-12-12T20:42:35.401Z,3.83
2022-12-12T20:45:07.583Z,3.72
2022-12-12T20:47:20.406Z,3.75
2022-12-12T20:49:31.659Z,3.65
2022-12-12T20:51:58.304Z,2.88
2022-12-12T20:56:46.051Z,2.78
2022-12-12T20:59:03.530Z,2.70
2022-12-12T21:01:14.735Z,3.40
2022-12-12T21:03:19.058Z,3.08
2022-12-12T21:05:30.113Z,3.45
2022-12-12T21:07:32.966Z,3.35
2022-12-12T21:09:37.309Z,3.47
2022-12-12T21:11:39.219Z,4.00
2022-12-12T21:13:49.100Z,3.80
2022-12-12T21:15:53.654Z,4.22
2022-12-12T21:17:55.512Z,3.85
2022-12-12T21:20:06.109Z,3.53
2022-12-12T21:22:08.472Z,4.38
2022-12-12T21:24:13.513Z,3.35
2022-12-12T21:26:22.664Z,3.75
2022-12-12T21:28:28.433Z,4.53
2022-12-12T21:30:32.834Z,5.90
2022-12-12T21:32:37.914Z,4.07
2022-12-12T21:34:40.282Z,3.50
2022-12-12T21:36:44.667Z,3.90
2022-12-12T21:38:46.534Z,4.38
2022-12-12T21:40:48.020Z,3.92
2022-12-12T21:42:49.621Z,3.58
2022-12-12T21:46:58.181Z,5.50
2022-12-12T21:49:26.777Z,4.53
2022-12-12T21:51:28.678Z,5.22
2022-12-12T21:53:36.314Z,4.72
2022-12-12T21:55:43.712Z,4.68
2022-12-12T21:57:48.353Z,5.35
2022-12-12T21:59:52.868Z,5.50
2022-12-12T22:01:58.754Z,5.32
2022-12-12T22:04:00.433Z,8.00
2022-12-12T22:06:18.457Z,5.68
2022-12-12T22:08:22.814Z,8.27
2022-12-12T22:12:30.028Z,6.50
2022-12-12T22:14:31.945Z,6.45
2022-12-12T22:16:37.214Z,8.23
2022-12-12T22:18:38.960Z,6.25
2022-12-12T22:20:43.616Z,7.05
2022-12-12T22:22:47.973Z,7.15
2022-12-12T22:24:52.333Z,7.35
2022-12-12T22:26:54.020Z,6.20
2022-12-12T22:28:57.536Z,5.93
2022-12-12T22:31:03.656Z,5.60
2022-12-12T22:33:05.272Z,5.40
2022-12-12T22:35:07.338Z,3.97
2022-12-12T22:37:08.852Z,5.00
2022-12-12T22:39:13.397Z,8.38
2022-12-12T22:41:17.690Z,5.97
2022-12-12T22:43:19.336Z,4.35
2022-12-12T22:45:23.846Z,6.25
2022-12-12T22:49:29.492Z,4.80
2022-12-12T22:51:32.180Z,5.55
2022-12-12T22:53:33.738Z,6.85
2022-12-12T22:55:35.950Z,4.88
2022-12-12T22:57:37.536Z,4.63
2022-12-12T22:59:39.101Z,5.22
2022-12-12T23:03:48.484Z,5.63
2022-12-12T23:05:52.697Z,4.72
2022-12-12T23:07:57.125Z,5.53
2022-12-12T23:10:04.951Z,6.82
2022-12-12T23:12:12.156Z,7.43
2022-12-12T23:14:19.426Z,5.82
2022-12-12T23:16:21.859Z,6.60
2022-12-12T23:18:26.424Z,7.82
2022-12-12T23:20:30.713Z,6.20
2022-12-12T23:22:32.281Z,6.15
2022-12-12T23:26:38.431Z,6.93
2022-12-12T23:29:02.291Z,5.72
2022-12-12T23:31:10.273Z,7.22
2022-12-12T23:33:13.872Z,9.10
2022-12-12T23:35:17.574Z,9.50
2022-12-12T23:37:21.173Z,9.20
2022-12-12T23:39:27.651Z,8.98
2022-12-12T23:41:34.765Z,8.80
2022-12-12T23:43:42.271Z,10.68
2022-12-12T23:45:49.443Z,10.50
2022-12-12T23:47:56.643Z,9.98
2022-12-12T23:50:03.682Z,8.18
2022-12-12T23:52:08.021Z,7.22
2022-12-12T23:56:14.879Z,7.47
2022-12-12T23:58:21.862Z,9.75
